Time;durP1;ratioP1;P1;durP2;ratioP2;P2;SDS_P1;SDS_P2;PMS_P1;PMS_P2;Temp;Humidity;BMP_temperature;BMP_pressure;BME280_temperature;BME280_humidity;BME280_pressure;Samples;Min_cycle;Max_cycle;Signal;HPM_P1;HPM_P2
2023/05/03 00:01:36;;;;;;;3.53;1.70;;;5.30;99.90;;;;;;5053867;28;20176;-80
2023/05/03 00:04:02;;;;;;;6.20;1.60;;;5.30;99.90;;;;;;5053205;28;20154;-80
2023/05/03 00:06:28;;;;;;;3.40;1.93;;;5.20;99.90;;;;;;5053920;28;20202;-80
2023/05/03 00:08:54;;;;;;;2.97;1.50;;;5.20;99.90;;;;;;5053781;28;20208;-78
2023/05/03 00:11:20;;;;;;;5.43;1.90;;;5.20;99.90;;;;;;5052284;28;20235;-79
2023/05/03 00:13:46;;;;;;;5.17;2.20;;;5.20;99.90;;;;;;5053364;28;20166;-79
2023/05/03 00:16:11;;;;;;;4.57;1.63;;;5.20;99.90;;;;;;5053690;28;20252;-79
2023/05/03 00:18:37;;;;;;;7.97;1.60;;;5.10;99.90;;;;;;5053461;28;20210;-81
2023/05/03 00:21:03;;;;;;;5.27;1.93;;;5.10;99.90;;;;;;5053607;28;20630;-81
2023/05/03 00:23:29;;;;;;;10.90;2.33;;;5.00;99.90;;;;;;5052287;28;20178;-80
2023/05/03 00:25:57;;;;;;;4.60;1.90;;;5.00;99.90;;;;;;5053273;28;20243;-79
2023/05/03 00:28:24;;;;;;;4.97;1.53;;;5.00;99.90;;;;;;5052146;28;20638;-81
2023/05/03 00:30:51;;;;;;;3.23;1.80;;;5.00;99.90;;;;;;5052398;28;20501;-80
2023/05/03 00:33:17;;;;;;;2.43;1.60;;;4.90;99.90;;;;;;5053498;28;20600;-81
2023/05/03 00:35:43;;;;;;;4.37;2.17;;;4.90;99.90;;;;;;5053811;28;20185;-80
2023/05/03 00:38:10;;;;;;;2.90;1.47;;;4.80;99.90;;;;;;5052207;28;20264;-80
2023/05/03 00:40:35;;;;;;;3.07;1.57;;;4.90;99.90;;;;;;5053610;28;20181;-81
2023/05/03 00:43:01;;;;;;;2.50;1.50;;;4.90;99.90;;;;;;5053155;28;20605;-79
2023/05/03 00:45:32;;;;;;;6.47;1.60;;;4.80;99.90;;;;;;5053379;28;20179;-80
2023/05/03 00:47:58;;;;;;;3.00;1.57;;;4.80;99.90;;;;;;5053414;28;20579;-80
2023/05/03 00:50:24;;;;;;;3.53;1.53;;;4.70;99.90;;;;;;5053311;28;20184;-79
2023/05/03 00:52:50;;;;;;;4.07;1.50;;;4.60;99.90;;;;;;5053040;28;20261;-79
2023/05/03 00:55:16;;;;;;;5.70;1.70;;;4.60;99.90;;;;;;5053209;28;20169;-80
2023/05/03 00:57:42;;;;;;;2.27;1.63;;;4.60;99.90;;;;;;5051880;28;20217;-79
2023/05/03 01:00:09;;;;;;;3.57;1.90;;;4.50;99.90;;;;;;5052881;28;20382;-81
2023/05/03 01:02:35;;;;;;;2.80;1.70;;;4.50;99.90;;;;;;5053097;28;20239;-80
2023/05/03 01:05:06;;;;;;;2.67;1.70;;;4.60;99.90;;;;;;5053053;28;20224;-80
2023/05/03 01:07:40;;;;;;;4.00;2.10;;;4.50;99.90;;;;;;5051939;28;20212;-79
2023/05/03 01:10:05;;;;;;;3.53;1.50;;;4.50;99.90;;;;;;5053139;28;20186;-80
2023/05/03 01:12:57;;;;;;;4.13;1.60;;;4.40;99.90;;;;;;5052911;28;20202;-80
2023/05/03 01:18:03;;;;;;;2.93;1.60;;;4.40;99.90;;;;;;4967544;28;20244;-77
2023/05/03 01:20:31;;;;;;;6.07;1.87;;;4.40;99.90;;;;;;5008880;28;20189;-79
2023/05/03 01:22:57;;;;;;;1.73;1.33;;;4.30;99.90;;;;;;4993637;28;20188;-77
2023/05/03 01:25:23;;;;;;;2.53;1.30;;;4.30;99.90;;;;;;5008825;28;20274;-77
2023/05/03 01:27:48;;;;;;;5.10;1.90;;;4.20;99.90;;;;;;4993825;28;20180;-79
2023/05/03 01:30:15;;;;;;;3.63;1.70;;;4.10;99.90;;;;;;4993821;28;20200;-79
2023/05/03 01:32:51;;;;;;;3.47;1.80;;;4.20;99.90;;;;;;4993309;28;20179;-78
2023/05/03 01:35:33;;;;;;;2.53;1.80;;;4.10;99.90;;;;;;4993818;28;20246;-77
2023/05/03 01:37:59;;;;;;;5.13;1.97;;;4.10;99.90;;;;;;4996598;28;20588;-83
2023/05/03 01:40:28;;;;;;;3.97;1.67;;;4.10;99.90;;;;;;4997265;28;20175;-78
2023/05/03 01:42:55;;;;;;;4.40;1.57;;;4.10;99.90;;;;;;4997218;28;20183;-80
2023/05/03 01:45:21;;;;;;;3.90;2.17;;;4.00;99.90;;;;;;4997102;28;20183;-77
2023/05/03 01:47:47;;;;;;;3.67;1.60;;;4.00;99.90;;;;;;5013866;28;20568;-77
2023/05/03 01:50:13;;;;;;;4.03;1.80;;;4.00;99.90;;;;;;5016669;28;20163;-77
2023/05/03 01:52:39;;;;;;;4.40;1.50;;;4.00;99.90;;;;;;5016283;28;20185;-77
2023/05/03 01:55:05;;;;;;;3.87;1.80;;;3.90;99.90;;;;;;5016660;28;20305;-83
2023/05/03 01:57:31;;;;;;;3.60;1.60;;;3.90;99.90;;;;;;5016555;28;20281;-78
2023/05/03 01:59:57;;;;;;;4.90;1.90;;;4.00;99.90;;;;;;5016508;28;20551;-77
2023/05/03 02:02:22;;;;;;;3.03;2.10;;;4.00;99.90;;;;;;5016262;28;20178;-82
2023/05/03 02:04:48;;;;;;;3.50;1.73;;;3.90;99.90;;;;;;5015939;28;20200;-77
2023/05/03 02:07:14;;;;;;;5.50;2.00;;;4.00;99.90;;;;;;5016607;28;20265;-83
2023/05/03 02:09:40;;;;;;;3.73;1.63;;;3.90;99.90;;;;;;5016406;28;20214;-78
2023/05/03 02:12:06;;;;;;;3.23;1.60;;;3.90;99.90;;;;;;5014916;28;20190;-77
2023/05/03 02:14:32;;;;;;;2.67;1.60;;;3.80;99.90;;;;;;5016396;28;20261;-77
2023/05/03 02:16:59;;;;;;;3.40;1.70;;;3.70;99.90;;;;;;5005172;28;20318;-77
2023/05/03 02:19:25;;;;;;;4.83;1.40;;;3.80;99.90;;;;;;4996514;28;20187;-78
2023/05/03 02:21:51;;;;;;;1.93;1.33;;;3.80;99.90;;;;;;4996812;28;20156;-77
2023/05/03 02:24:18;;;;;;;6.37;1.70;;;3.60;99.90;;;;;;5011580;28;20494;-78
2023/05/03 02:26:44;;;;;;;3.27;1.60;;;3.50;99.90;;;;;;4996567;28;20196;-78
2023/05/03 02:29:10;;;;;;;5.37;1.77;;;3.40;99.90;;;;;;4996394;28;20563;-77
2023/05/03 02:31:36;;;;;;;4.20;1.67;;;3.40;99.90;;;;;;4994894;28;20207;-77
2023/05/03 02:34:02;;;;;;;3.03;1.63;;;3.40;99.90;;;;;;4996338;28;20187;-78
2023/05/03 02:36:28;;;;;;;4.00;1.60;;;3.40;99.90;;;;;;4996273;28;20172;-77
2023/05/03 02:38:53;;;;;;;1.53;1.30;;;3.50;99.90;;;;;;4996264;28;20226;-77
2023/05/03 02:41:20;;;;;;;3.33;1.47;;;3.50;99.90;;;;;;4996253;28;20165;-85
2023/05/03 02:43:45;;;;;;;2.47;1.60;;;3.50;99.90;;;;;;4996084;28;20186;-78
2023/05/03 02:46:11;;;;;;;3.57;1.60;;;3.40;99.90;;;;;;5000294;28;20187;-77
2023/05/03 02:48:37;;;;;;;1.80;1.50;;;3.30;99.90;;;;;;5015490;28;20222;-77
2023/05/03 02:51:03;;;;;;;1.87;1.43;;;3.30;99.90;;;;;;5015724;28;20218;-79
2023/05/03 02:53:28;;;;;;;3.07;1.70;;;3.30;99.90;;;;;;5015590;28;20171;-78
2023/05/03 02:55:54;;;;;;;2.17;1.67;;;3.20;99.90;;;;;;5015598;28;20178;-84
2023/05/03 02:58:20;;;;;;;3.93;1.53;;;3.20;99.90;;;;;;5015584;28;20218;-78
2023/05/03 03:00:45;;;;;;;2.80;1.73;;;3.10;99.90;;;;;;5015774;28;20179;-80
2023/05/03 03:03:11;;;;;;;4.00;1.63;;;3.10;99.90;;;;;;5014990;28;20188;-80
2023/05/03 03:05:37;;;;;;;5.07;1.80;;;3.20;99.90;;;;;;5015451;28;20637;-80
2023/05/03 03:08:03;;;;;;;4.50;1.83;;;3.20;99.90;;;;;;5015386;28;20512;-80
2023/05/03 03:10:29;;;;;;;3.30;1.50;;;3.20;99.90;;;;;;5013984;28;20171;-83
2023/05/03 03:12:54;;;;;;;2.93;1.70;;;3.20;99.90;;;;;;5015136;28;20183;-81
2023/05/03 03:15:21;;;;;;;4.70;1.90;;;3.30;99.90;;;;;;5013996;28;20179;-81
2023/05/03 03:17:46;;;;;;;6.40;1.60;;;3.30;99.90;;;;;;5014623;28;20245;-79
2023/05/03 03:20:12;;;;;;;2.00;1.63;;;3.30;99.90;;;;;;5015249;28;20602;-78
2023/05/03 03:22:38;;;;;;;3.60;1.70;;;3.20;99.90;;;;;;5015008;28;20187;-77
2023/05/03 03:25:05;;;;;;;2.77;1.90;;;3.20;99.90;;;;;;5015369;28;20171;-79
2023/05/03 03:27:31;;;;;;;4.87;1.70;;;3.20;99.90;;;;;;5015067;28;20171;-77
2023/05/03 03:29:58;;;;;;;2.87;1.63;;;3.30;99.90;;;;;;5013589;28;20194;-77
2023/05/03 03:32:24;;;;;;;2.27;1.70;;;3.40;99.90;;;;;;5014555;28;20187;-76
2023/05/03 03:34:50;;;;;;;2.87;1.73;;;3.40;99.90;;;;;;5014916;28;20679;-78
2023/05/03 03:37:16;;;;;;;3.90;1.90;;;3.50;99.90;;;;;;5014754;28;20215;-78
2023/05/03 03:39:43;;;;;;;5.80;2.20;;;3.60;99.90;;;;;;5014718;28;20171;-78
2023/05/03 03:42:13;;;;;;;6.20;2.03;;;3.60;99.90;;;;;;5014807;28;20179;-77
2023/05/03 03:44:39;;;;;;;7.70;2.20;;;3.60;99.90;;;;;;5014621;28;20673;-79
2023/05/03 03:47:05;;;;;;;4.17;2.10;;;3.80;99.90;;;;;;5012905;28;20322;-84
2023/05/03 03:49:30;;;;;;;2.77;1.80;;;3.80;99.90;;;;;;5014534;28;20179;-78
2023/05/03 03:51:56;;;;;;;3.63;1.87;;;3.90;99.90;;;;;;5014536;28;20538;-77
2023/05/03 03:54:22;;;;;;;4.30;2.20;;;3.90;99.90;;;;;;5014519;28;20230;-77
2023/05/03 03:56:49;;;;;;;4.07;2.03;;;4.00;99.90;;;;;;5014456;28;20631;-77
2023/05/03 03:59:15;;;;;;;5.10;2.10;;;4.00;99.90;;;;;;5013840;28;20207;-78
2023/05/03 04:01:41;;;;;;;4.37;2.00;;;4.10;99.90;;;;;;5014336;28;20204;-77
2023/05/03 04:04:07;;;;;;;3.93;2.17;;;4.10;99.90;;;;;;5014129;28;20187;-78
2023/05/03 04:06:32;;;;;;;4.90;2.10;;;4.20;99.90;;;;;;5014418;28;20209;-77
2023/05/03 04:08:58;;;;;;;4.00;2.30;;;4.20;99.90;;;;;;5012936;28;20187;-78
2023/05/03 04:11:24;;;;;;;3.63;2.00;;;4.30;99.90;;;;;;5014203;28;20179;-82
2023/05/03 04:13:50;;;;;;;3.57;2.23;;;4.40;99.90;;;;;;5014004;28;20171;-81
2023/05/03 04:16:15;;;;;;;3.87;2.27;;;4.40;99.90;;;;;;5013606;28;20703;-81
2023/05/03 04:18:41;;;;;;;8.40;2.60;;;4.40;99.90;;;;;;5014153;28;20210;-81
2023/05/03 04:21:07;;;;;;;7.97;2.67;;;4.40;99.90;;;;;;5014192;28;20167;-79
2023/05/03 04:23:33;;;;;;;6.67;2.50;;;4.50;99.90;;;;;;5013977;28;20179;-80
2023/05/03 04:25:59;;;;;;;4.60;2.40;;;4.50;99.90;;;;;;5014074;28;20242;-80
2023/05/03 04:28:25;;;;;;;5.10;2.50;;;4.50;99.90;;;;;;5013814;28;20179;-80
2023/05/03 04:30:52;;;;;;;6.77;2.37;;;4.60;99.90;;;;;;5014157;28;20237;-80
2023/05/03 04:33:19;;;;;;;15.00;2.33;;;4.60;99.90;;;;;;5013677;28;20183;-80
2023/05/03 04:35:48;;;;;;;3.03;2.23;;;4.70;99.90;;;;;;5014249;28;20171;-85
2023/05/03 04:38:14;;;;;;;4.67;2.20;;;4.70;99.90;;;;;;5014186;28;20207;-87
2023/05/03 04:40:40;;;;;;;7.53;2.67;;;4.70;99.90;;;;;;5014177;28;20186;-86
2023/05/03 04:43:06;;;;;;;6.57;2.87;;;4.80;99.90;;;;;;5014414;28;20179;-89
2023/05/03 04:45:32;;;;;;;4.27;2.43;;;4.80;99.90;;;;;;5014219;28;20648;-81
2023/05/03 04:47:58;;;;;;;5.57;2.33;;;4.80;99.90;;;;;;5014062;28;20198;-86
2023/05/03 04:50:25;;;;;;;5.00;2.63;;;4.80;99.90;;;;;;5013042;28;20190;-81
2023/05/03 04:52:51;;;;;;;3.20;2.23;;;4.80;99.90;;;;;;5014484;28;20167;-87
2023/05/03 04:55:17;;;;;;;7.03;2.10;;;4.80;99.90;;;;;;5014428;28;20498;-86
2023/05/03 04:57:42;;;;;;;7.37;2.30;;;4.90;99.90;;;;;;5014595;28;20265;-86
2023/05/03 05:00:10;;;;;;;4.47;2.80;;;5.00;99.90;;;;;;5014815;28;20657;-84
2023/05/03 05:02:36;;;;;;;6.73;3.23;;;5.00;99.90;;;;;;5013826;28;20163;-88
2023/05/03 05:05:02;;;;;;;7.23;2.53;;;5.00;99.90;;;;;;5012669;28;20175;-86
2023/05/03 05:07:28;;;;;;;6.27;2.40;;;5.00;99.90;;;;;;5013918;28;20262;-82
2023/05/03 05:09:54;;;;;;;6.37;2.90;;;5.10;99.90;;;;;;5013791;28;20210;-80
2023/05/03 05:12:20;;;;;;;2.50;2.03;;;5.00;99.90;;;;;;5015363;28;20213;-82
2023/05/03 05:14:45;;;;;;;4.77;2.40;;;5.10;99.90;;;;;;5017514;28;20180;-79
2023/05/03 05:17:11;;;;;;;5.73;2.27;;;5.20;99.90;;;;;;5017165;28;20239;-80
2023/05/03 05:19:37;;;;;;;3.47;2.50;;;5.30;99.90;;;;;;5017899;28;20180;-80
2023/05/03 05:22:03;;;;;;;6.40;2.60;;;5.30;99.90;;;;;;5017853;28;20172;-84
2023/05/03 05:24:29;;;;;;;4.77;2.43;;;5.40;99.90;;;;;;5018090;28;20194;-81
2023/05/03 05:26:54;;;;;;;5.07;2.20;;;5.50;99.90;;;;;;5016520;28;20218;-81
2023/05/03 05:29:21;;;;;;;5.73;2.63;;;5.60;99.90;;;;;;5017334;28;20258;-77
2023/05/03 05:31:47;;;;;;;6.40;2.60;;;5.60;99.90;;;;;;5016204;28;20199;-77
2023/05/03 05:34:12;;;;;;;4.43;2.57;;;5.70;99.90;;;;;;5017078;28;20186;-77
2023/05/03 05:36:38;;;;;;;6.83;2.77;;;5.80;99.90;;;;;;5016006;28;20912;-85
2023/05/03 05:39:04;;;;;;;3.20;2.03;;;5.90;99.90;;;;;;5016564;28;20313;-78
2023/05/03 05:41:30;;;;;;;3.57;2.33;;;6.00;99.90;;;;;;5016921;28;20191;-77
2023/05/03 05:43:56;;;;;;;3.83;2.40;;;6.10;99.90;;;;;;5016990;28;20361;-77
2023/05/03 05:46:22;;;;;;;6.47;2.50;;;6.20;99.90;;;;;;5017062;28;20171;-78
2023/05/03 05:48:50;;;;;;;4.73;2.17;;;6.30;99.90;;;;;;5016923;28;20179;-77
2023/05/03 05:51:16;;;;;;;6.67;2.37;;;6.40;99.90;;;;;;5016781;28;20175;-77
2023/05/03 05:53:42;;;;;;;7.00;2.83;;;6.60;99.90;;;;;;5015044;28;20207;-77
2023/05/03 05:56:08;;;;;;;5.50;2.20;;;6.70;99.90;;;;;;5016659;28;20210;-78
2023/05/03 05:58:36;;;;;;;7.60;2.73;;;6.90;99.90;;;;;;5016628;28;20210;-77
2023/05/03 06:01:02;;;;;;;7.60;2.13;;;7.00;99.90;;;;;;5016492;28;20171;-80
2023/05/03 06:03:28;;;;;;;5.97;2.30;;;7.10;99.90;;;;;;5016255;28;20183;-77
2023/05/03 06:05:54;;;;;;;3.97;2.17;;;7.20;99.90;;;;;;5016569;28;20325;-77
2023/05/03 06:08:23;;;;;;;6.83;2.60;;;7.40;99.90;;;;;;5015870;28;20219;-77
2023/05/03 06:10:51;;;;;;;9.70;2.47;;;7.50;99.90;;;;;;5016274;28;20633;-78
2023/05/03 06:13:17;;;;;;;3.13;2.27;;;7.70;99.90;;;;;;5016139;28;20183;-79
2023/05/03 06:15:43;;;;;;;4.80;2.03;;;7.70;99.90;;;;;;5016102;28;20245;-78
2023/05/03 06:18:09;;;;;;;6.10;2.30;;;7.80;99.90;;;;;;5016127;28;20296;-78
2023/05/03 06:20:35;;;;;;;3.40;1.67;;;7.90;99.90;;;;;;5016041;28;20199;-77
2023/05/03 06:23:00;;;;;;;4.57;2.20;;;8.10;99.90;;;;;;5015211;28;20543;-77
2023/05/03 06:25:26;;;;;;;5.77;2.27;;;8.10;99.90;;;;;;5016111;28;20175;-79
2023/05/03 06:27:52;;;;;;;3.70;2.00;;;8.10;99.90;;;;;;5014892;28;20183;-78
2023/05/03 06:30:17;;;;;;;1.93;1.80;;;8.00;99.90;;;;;;5015978;28;20514;-78
2023/05/03 06:32:46;;;;;;;6.80;2.33;;;8.00;99.90;;;;;;5015828;28;20174;-78
2023/05/03 06:35:12;;;;;;;5.43;1.90;;;8.00;99.90;;;;;;5016005;28;20199;-78
2023/05/03 06:37:38;;;;;;;7.10;2.27;;;7.90;99.90;;;;;;5015494;28;20238;-78
2023/05/03 06:40:05;;;;;;;6.20;1.93;;;8.00;99.90;;;;;;5015875;28;20179;-78
2023/05/03 06:42:31;;;;;;;3.37;2.00;;;8.10;99.90;;;;;;5015693;28;20590;-78
2023/05/03 06:44:57;;;;;;;2.43;1.70;;;8.30;99.90;;;;;;5016153;28;20199;-81
2023/05/03 06:47:22;;;;;;;6.00;2.23;;;8.40;99.90;;;;;;5015709;28;20175;-78
2023/05/03 06:49:48;;;;;;;4.37;1.77;;;8.60;99.90;;;;;;5015670;28;20175;-77
2023/05/03 06:52:15;;;;;;;5.30;1.90;;;8.70;99.90;;;;;;5015482;28;20560;-78
2023/05/03 06:54:40;;;;;;;4.73;1.77;;;8.90;99.90;;;;;;5015744;28;20180;-78
2023/05/03 06:57:06;;;;;;;4.57;1.80;;;9.10;99.90;;;;;;5015660;28;20219;-80
2023/05/03 06:59:32;;;;;;;4.33;1.47;;;9.20;99.90;;;;;;5014157;28;20187;-87
2023/05/03 07:01:58;;;;;;;4.73;1.70;;;9.10;99.90;;;;;;5015229;28;20256;-79
2023/05/03 07:04:24;;;;;;;6.03;2.13;;;9.00;99.90;;;;;;5014077;28;20187;-78
2023/05/03 07:06:49;;;;;;;6.47;1.80;;;9.10;99.90;;;;;;5015371;28;20179;-77
2023/05/03 07:09:16;;;;;;;5.30;1.57;;;8.90;99.90;;;;;;5014953;28;20557;-78
2023/05/03 07:11:48;;;;;;;4.80;1.53;;;9.00;99.90;;;;;;5015288;28;20180;-85
2023/05/03 07:14:14;;;;;;;5.47;1.60;;;9.00;99.90;;;;;;5015226;28;20178;-78
2023/05/03 07:16:40;;;;;;;2.53;1.50;;;8.90;99.90;;;;;;5015119;28;20314;-78
2023/05/03 07:19:06;;;;;;;5.13;1.53;;;8.80;99.90;;;;;;5015075;28;20354;-79
2023/05/03 07:21:32;;;;;;;6.53;1.70;;;8.80;99.90;;;;;;5013882;28;20182;-84
2023/05/03 07:23:59;;;;;;;4.77;1.70;;;8.70;99.90;;;;;;5014894;28;20169;-80
2023/05/03 07:26:25;;;;;;;7.80;1.90;;;8.70;99.90;;;;;;5015164;28;20223;-78
2023/05/03 07:28:52;;;;;;;4.77;1.00;;;8.70;99.90;;;;;;5015030;28;20610;-79
2023/05/03 07:31:21;;;;;;;2.40;0.93;;;8.80;99.90;;;;;;5014851;28;20649;-77
2023/05/03 07:33:47;;;;;;;3.23;1.23;;;8.60;99.90;;;;;;5012962;28;20233;-84
2023/05/03 07:36:13;;;;;;;4.13;1.07;;;8.60;99.90;;;;;;5014554;28;20171;-80
2023/05/03 07:38:38;;;;;;;2.50;1.10;;;8.60;99.90;;;;;;5014669;28;20617;-78
2023/05/03 07:41:05;;;;;;;5.63;1.37;;;8.70;99.90;;;;;;5014883;28;20186;-81
2023/05/03 07:43:31;;;;;;;2.90;0.90;;;8.80;99.90;;;;;;5014693;28;20202;-80
2023/05/03 07:45:57;;;;;;;5.07;1.40;;;8.80;99.90;;;;;;5014736;28;20207;-88
2023/05/03 07:48:22;;;;;;;3.73;1.27;;;8.80;99.90;;;;;;5014491;28;20179;-79
2023/05/03 07:50:48;;;;;;;5.93;1.17;;;8.80;99.90;;;;;;5014629;28;20213;-79
2023/05/03 07:53:14;;;;;;;1.30;0.83;;;8.90;99.90;;;;;;5014390;28;20522;-78
2023/05/03 07:55:40;;;;;;;5.53;1.30;;;8.90;99.90;;;;;;5014552;28;20562;-79
2023/05/03 07:58:06;;;;;;;4.60;1.37;;;9.00;99.90;;;;;;5014483;28;20211;-78
2023/05/03 08:00:31;;;;;;;7.63;1.33;;;9.00;99.90;;;;;;5014409;28;20190;-82
2023/05/03 08:02:57;;;;;;;6.23;1.10;;;9.00;99.90;;;;;;5012959;28;20171;-80
2023/05/03 08:05:23;;;;;;;6.00;1.10;;;9.10;99.90;;;;;;5014329;28;20253;-77
2023/05/03 08:07:49;;;;;;;3.70;1.00;;;9.10;99.90;;;;;;5010742;28;20198;-76
2023/05/03 08:10:15;;;;;;;10.27;1.40;;;9.10;99.90;;;;;;5014169;28;20168;-79
2023/05/03 08:12:41;;;;;;;4.53;1.00;;;9.10;99.90;;;;;;5012684;28;20186;-75
2023/05/03 08:15:07;;;;;;;5.27;1.00;;;9.20;99.90;;;;;;5012835;28;20536;-82
2023/05/03 08:17:41;;;;;;;3.27;1.00;;;9.10;99.90;;;;;;5013738;28;20234;-77
2023/05/03 08:20:07;;;;;;;4.70;1.00;;;9.20;99.90;;;;;;5012691;28;20179;-81
2023/05/03 08:22:35;;;;;;;4.20;1.53;;;9.10;99.90;;;;;;5013384;28;20190;-76
2023/05/03 08:25:03;;;;;;;3.10;1.20;;;9.20;99.90;;;;;;5012886;28;20310;-76
2023/05/03 08:27:29;;;;;;;3.60;1.17;;;9.30;99.90;;;;;;5011922;28;20314;-77
2023/05/03 08:29:54;;;;;;;3.87;1.00;;;9.30;99.90;;;;;;5012582;28;20625;-77
2023/05/03 08:32:21;;;;;;;3.47;1.10;;;9.30;99.90;;;;;;5013740;28;20182;-79
2023/05/03 08:34:47;;;;;;;4.87;1.47;;;9.40;99.90;;;;;;5014026;28;20661;-83
2023/05/03 08:37:13;;;;;;;3.90;1.00;;;9.50;99.90;;;;;;5012625;28;20207;-79
2023/05/03 08:39:39;;;;;;;4.90;1.00;;;9.60;99.90;;;;;;5013404;28;20622;-79
2023/05/03 08:42:08;;;;;;;6.10;1.30;;;9.80;99.90;;;;;;5013543;28;20206;-76
2023/05/03 08:44:39;;;;;;;3.83;1.25;;;9.90;99.90;;;;;;5013920;28;20253;-77
2023/05/03 08:47:06;;;;;;;4.97;1.13;;;10.10;99.30;;;;;;5017203;28;20175;-76
2023/05/03 08:49:34;;;;;;;4.65;1.25;;;10.10;99.70;;;;;;5016582;28;20202;-79
2023/05/03 08:52:01;;;;;;;1.27;0.80;;;10.20;99.70;;;;;;5016400;28;20186;-77
2023/05/03 08:54:26;;;;;;;6.87;1.30;;;10.20;99.80;;;;;;5017226;28;20164;-78
2023/05/03 08:56:52;;;;;;;3.00;1.00;;;10.10;98.70;;;;;;5016263;28;20241;-77
2023/05/03 08:59:18;;;;;;;7.65;1.38;;;10.00;98.10;;;;;;5017545;28;20243;-78
2023/05/03 09:01:44;;;;;;;3.08;0.88;;;10.00;99.00;;;;;;5015923;28;20700;-78
2023/05/03 09:04:10;;;;;;;2.83;1.00;;;10.10;99.50;;;;;;5016246;28;20668;-78
2023/05/03 09:06:37;;;;;;;1.45;0.90;;;10.50;98.90;;;;;;5017390;28;20772;-76
2023/05/03 09:09:07;;;;;;;7.40;1.42;;;10.90;98.70;;;;;;5015840;28;20179;-83
2023/05/03 09:11:35;;;;;;;3.28;1.23;;;11.30;98.40;;;;;;5016181;28;20695;-80
2023/05/03 09:14:10;;;;;;;4.80;1.10;;;11.40;94.90;;;;;;5017352;28;20182;-78
2023/05/03 09:16:39;;;;;;;3.83;1.00;;;11.70;96.10;;;;;;5016054;28;20226;-79
2023/05/03 09:19:11;;;;;;;2.83;1.00;;;11.80;94.60;;;;;;5017327;28;20218;-77
2023/05/03 09:21:42;;;;;;;5.22;1.20;;;12.00;96.40;;;;;;5016018;28;20183;-80
2023/05/03 09:24:21;;;;;;;3.13;1.23;;;12.30;95.30;;;;;;5014903;28;20167;-78
2023/05/03 09:26:50;;;;;;;5.38;1.30;;;12.60;98.70;;;;;;5016917;28;20213;-81
2023/05/03 09:29:35;;;;;;;2.90;1.02;;;12.80;95.60;;;;;;5016720;28;20233;-78
2023/05/03 09:32:07;;;;;;;5.72;1.02;;;12.90;93.90;;;;;;5015489;28;20528;-79
2023/05/03 09:34:34;;;;;;;3.63;1.05;;;12.80;93.60;;;;;;5016800;28;20191;-78
2023/05/03 09:37:00;;;;;;;1.98;0.98;;;12.60;93.60;;;;;;5015639;28;20187;-78
2023/05/03 09:39:26;;;;;;;5.05;1.33;;;12.50;95.10;;;;;;5015486;28;20176;-79
2023/05/03 09:41:53;;;;;;;2.30;1.10;;;12.50;94.00;;;;;;5016944;28;20175;-80
2023/05/03 09:44:19;;;;;;;3.58;1.02;;;12.50;93.80;;;;;;5016774;28;20178;-77
2023/05/03 09:47:03;;;;;;;4.78;1.30;;;12.40;92.20;;;;;;5016730;28;20168;-78
2023/05/03 09:49:33;;;;;;;3.78;1.10;;;12.10;94.00;;;;;;5016495;28;20179;-78
2023/05/03 09:52:01;;;;;;;4.53;0.98;;;11.80;93.80;;;;;;5015260;28;20565;-78
2023/05/03 09:54:30;;;;;;;2.42;1.05;;;11.40;93.90;;;;;;5016496;28;20218;-81
2023/05/03 09:56:56;;;;;;;4.78;0.88;;;11.30;94.20;;;;;;5014451;28;20194;-77
2023/05/03 09:59:22;;;;;;;3.47;1.10;;;11.20;95.10;;;;;;5015014;28;20182;-80
2023/05/03 10:01:51;;;;;;;1.95;0.90;;;11.50;94.60;;;;;;5015042;28;20182;-78
2023/05/03 10:04:18;;;;;;;4.95;1.17;;;11.80;93.70;;;;;;5016503;28;20168;-80
2023/05/03 10:06:48;;;;;;;2.38;1.02;;;11.90;92.10;;;;;;5016333;28;20171;-78
2023/05/03 10:09:23;;;;;;;7.32;1.17;;;11.90;95.00;;;;;;5014710;28;20183;-77
2023/05/03 10:11:58;;;;;;;3.97;1.13;;;12.10;93.00;;;;;;5014915;28;20186;-78
2023/05/03 10:14:23;;;;;;;5.82;1.20;;;12.20;93.90;;;;;;5016242;28;20209;-78
2023/05/03 10:17:03;;;;;;;2.17;1.20;;;12.60;96.50;;;;;;5014795;28;20262;-82
2023/05/03 10:19:36;;;;;;;4.15;1.20;;;12.80;94.60;;;;;;5014780;28;20306;-79
2023/05/03 10:22:10;;;;;;;3.88;1.35;;;13.10;93.40;;;;;;5015046;28;20175;-81
2023/05/03 10:24:56;;;;;;;5.35;1.40;;;13.30;92.80;;;;;;5014917;28;20713;-83
2023/05/03 10:27:22;;;;;;;5.95;1.20;;;13.50;92.00;;;;;;5014616;28;20191;-83
2023/05/03 10:29:50;;;;;;;3.70;0.90;;;13.60;92.60;;;;;;5016202;28;20163;-83
2023/05/03 10:32:31;;;;;;;3.10;0.98;;;13.50;91.40;;;;;;5014843;28;20189;-84
2023/05/03 10:35:08;;;;;;;4.45;1.38;;;13.40;90.80;;;;;;5016128;28;20616;-82
2023/05/03 10:37:35;;;;;;;3.97;1.10;;;13.40;90.90;;;;;;5016023;28;20199;-77
2023/05/03 10:40:09;;;;;;;2.97;1.30;;;13.40;90.10;;;;;;5015492;28;20172;-78
2023/05/03 10:42:37;;;;;;;2.05;1.10;;;13.40;93.40;;;;;;5015531;28;20206;-78
2023/05/03 10:45:03;;;;;;;8.85;1.45;;;13.40;92.70;;;;;;5015690;28;20163;-78
2023/05/03 10:47:29;;;;;;;4.75;1.48;;;13.30;91.60;;;;;;5014258;28;20187;-79
2023/05/03 10:50:24;;;;;;;6.53;1.30;;;13.30;92.60;;;;;;5014184;28;20182;-78
2023/05/03 10:52:51;;;;;;;4.63;1.23;;;13.50;91.10;;;;;;5013941;28;20174;-85
2023/05/03 10:55:19;;;;;;;2.20;1.00;;;13.80;91.20;;;;;;5014127;28;20503;-83
2023/05/03 10:57:47;;;;;;;5.50;1.55;;;13.80;90.50;;;;;;5015613;28;20260;-85
2023/05/03 11:00:15;;;;;;;2.83;1.23;;;14.00;92.50;;;;;;5015563;28;20582;-84
2023/05/03 11:03:08;;;;;;;3.15;1.10;;;14.00;89.70;;;;;;5015315;28;20171;-85
2023/05/03 11:05:36;;;;;;;3.30;1.45;;;14.10;89.10;;;;;;5014269;28;20294;-82
2023/05/03 11:08:18;;;;;;;5.90;1.70;;;14.20;89.40;;;;;;5015452;28;20290;-85
2023/05/03 11:10:50;;;;;;;4.40;1.25;;;14.30;89.40;;;;;;5015238;28;20190;-81
2023/05/03 11:13:16;;;;;;;4.40;1.13;;;14.00;86.30;;;;;;5014271;28;20222;-86
2023/05/03 11:15:42;;;;;;;4.72;1.30;;;14.00;90.30;;;;;;5015391;28;20167;-84
2023/05/03 11:18:10;;;;;;;3.33;1.10;;;14.10;90.80;;;;;;5013060;28;20310;-80
2023/05/03 11:20:37;;;;;;;5.28;1.60;;;14.10;88.40;;;;;;5004969;28;20555;-84
2023/05/03 11:23:04;;;;;;;4.93;1.58;;;14.30;88.10;;;;;;5014497;28;20281;-78
2023/05/03 11:25:32;;;;;;;2.22;1.15;;;14.30;90.00;;;;;;5014982;28;20262;-77
2023/05/03 11:28:00;;;;;;;4.85;1.40;;;14.20;90.20;;;;;;5008013;28;20175;-84
2023/05/03 11:30:26;;;;;;;4.93;1.50;;;14.40;88.90;;;;;;5015311;28;20194;-85
2023/05/03 11:32:53;;;;;;;2.10;1.20;;;14.50;90.40;;;;;;5014826;28;20182;-85
2023/05/03 11:35:22;;;;;;;4.07;1.30;;;14.50;88.50;;;;;;5014987;28;20174;-83
2023/05/03 11:37:48;;;;;;;3.58;1.40;;;14.60;87.00;;;;;;5014987;28;20199;-84
2023/05/03 11:40:15;;;;;;;2.60;1.10;;;14.70;89.10;;;;;;5014902;28;20179;-84
2023/05/03 11:42:57;;;;;;;1.88;1.00;;;15.00;90.30;;;;;;5013558;28;20172;-85
2023/05/03 11:45:30;;;;;;;6.07;1.40;;;15.10;90.20;;;;;;5015247;28;20538;-87
2023/05/03 11:47:57;;;;;;;8.23;1.55;;;15.20;90.30;;;;;;5014125;28;20182;-85
2023/05/03 11:50:42;;;;;;;3.90;1.40;;;15.30;87.60;;;;;;5011867;28;20185;-84
2023/05/03 11:53:08;;;;;;;5.15;1.50;;;14.50;88.50;;;;;;5012161;28;20179;-83
2023/05/03 11:55:38;;;;;;;3.05;1.30;;;14.60;89.90;;;;;;5013207;28;20183;-81
2023/05/03 11:58:03;;;;;;;3.33;1.70;;;14.60;90.80;;;;;;5014081;28;20908;-78
2023/05/03 12:00:29;;;;;;;4.47;1.70;;;14.80;91.30;;;;;;5014075;28;20175;-78
2023/05/03 12:02:58;;;;;;;4.60;1.33;;;14.90;88.20;;;;;;5014258;28;20171;-77
2023/05/03 12:05:23;;;;;;;3.13;1.33;;;15.20;87.80;;;;;;5014083;28;20251;-78
2023/05/03 12:07:50;;;;;;;3.17;1.10;;;15.20;87.00;;;;;;5014269;28;20258;-77
2023/05/03 12:10:17;;;;;;;5.55;1.40;;;15.30;88.20;;;;;;5013869;28;20177;-77
2023/05/03 12:12:55;;;;;;;6.72;1.77;;;15.50;88.40;;;;;;5014116;28;20178;-80
2023/05/03 12:15:29;;;;;;;3.88;1.35;;;15.60;89.50;;;;;;5013143;28;20620;-78
2023/05/03 12:17:56;;;;;;;5.47;1.48;;;15.80;89.00;;;;;;5014008;28;20305;-79
2023/05/03 12:20:24;;;;;;;5.22;1.38;;;15.80;86.80;;;;;;5012108;28;20266;-82
2023/05/03 12:22:51;;;;;;;3.22;1.50;;;15.60;84.20;;;;;;5013628;28;20229;-78
2023/05/03 12:25:18;;;;;;;4.43;1.48;;;15.50;84.90;;;;;;5012878;28;20182;-80
2023/05/03 12:27:44;;;;;;;3.28;1.25;;;15.60;87.00;;;;;;5012740;28;20648;-77
2023/05/03 12:30:10;;;;;;;3.67;1.27;;;15.70;83.50;;;;;;5011857;28;20188;-78
2023/05/03 12:32:40;;;;;;;4.60;1.40;;;15.40;83.30;;;;;;5012711;28;20274;-78
2023/05/03 12:35:09;;;;;;;5.13;1.40;;;15.30;84.10;;;;;;5014083;28;20163;-77
2023/05/03 12:37:36;;;;;;;3.95;1.60;;;15.40;88.60;;;;;;5013877;28;20559;-79
2023/05/03 12:40:03;;;;;;;5.10;1.63;;;15.20;87.70;;;;;;5013543;28;20282;-78
2023/05/03 12:42:28;;;;;;;2.85;1.48;;;15.20;87.90;;;;;;5013809;28;20554;-77
2023/05/03 12:45:00;;;;;;;5.22;1.55;;;15.30;89.70;;;;;;5013941;28;20229;-78
2023/05/03 12:47:26;;;;;;;3.33;1.60;;;15.30;90.00;;;;;;5013824;28;20168;-76
2023/05/03 12:49:53;;;;;;;7.20;1.60;;;15.50;89.20;;;;;;5012464;28;20175;-79
2023/05/03 12:52:20;;;;;;;4.15;1.75;;;15.50;83.20;;;;;;5013596;28;20681;-78
2023/05/03 12:54:46;;;;;;;5.15;1.48;;;15.40;85.60;;;;;;5013463;28;20194;-78
2023/05/03 12:57:13;;;;;;;6.03;1.40;;;15.40;87.40;;;;;;5012513;28;20187;-81